createdAt,value
2018-03-23T00:00:51.806Z,1005.65
2018-03-23T00:01:51.820Z,1005.64
2018-03-23T00:02:51.852Z,1005.62
2018-03-23T00:03:51.864Z,1005.60
2018-03-23T00:04:51.896Z,1005.58
2018-03-23T00:05:51.919Z,1005.61
2018-03-23T00:06:51.927Z,1005.63
2018-03-23T00:07:51.950Z,1005.63
2018-03-23T00:08:51.971Z,1005.62
2018-03-23T00:09:52.010Z,1005.64
2018-03-23T00:10:52.018Z,1005.60
2018-03-23T00:11:52.058Z,1005.59
2018-03-23T00:12:52.078Z,1005.59
2018-03-23T00:13:52.092Z,1005.58
2018-03-23T00:14:52.117Z,1005.59
2018-03-23T00:15:52.148Z,1005.61
2018-03-23T00:16:52.151Z,1005.58
2018-03-23T00:17:52.183Z,1005.59
2018-03-23T00:18:52.199Z,1005.64
2018-03-23T00:19:52.222Z,1005.65
2018-03-23T00:20:52.363Z,1005.68
2018-03-23T00:21:52.275Z,1005.65
2018-03-23T00:22:52.312Z,1005.64
2018-03-23T00:23:52.310Z,1005.65
2018-03-23T00:24:52.335Z,1005.65
2018-03-23T00:25:52.351Z,1005.64
2018-03-23T00:26:52.379Z,1005.66
2018-03-23T00:27:52.401Z,1005.67
2018-03-23T00:28:52.425Z,1005.69
2018-03-23T00:29:52.451Z,1005.72
2018-03-23T00:30:52.465Z,1005.70
2018-03-23T00:31:52.488Z,1005.70
2018-03-23T00:32:52.518Z,1005.73
2018-03-23T00:33:52.615Z,1005.73
2018-03-23T00:34:52.553Z,1005.70
2018-03-23T00:35:52.588Z,1005.70
2018-03-23T00:36:52.610Z,1005.70
2018-03-23T00:37:52.620Z,1005.72
2018-03-23T00:38:52.647Z,1005.72
2018-03-23T00:39:52.673Z,1005.71
2018-03-23T00:40:52.702Z,1005.71
2018-03-23T00:41:52.719Z,1005.74
2018-03-23T00:42:52.733Z,1005.77
2018-03-23T00:43:52.760Z,1005.74
2018-03-23T00:44:52.778Z,1005.74
2018-03-23T00:45:52.799Z,1005.77
2018-03-23T00:46:52.838Z,1005.78
2018-03-23T00:47:52.846Z,1005.77
2018-03-23T00:48:52.880Z,1005.79
2018-03-23T00:49:52.889Z,1005.71
2018-03-23T00:50:52.919Z,1005.74
2018-03-23T00:51:52.951Z,1005.77
2018-03-23T00:52:52.954Z,1005.75
2018-03-23T00:53:52.978Z,1005.72
2018-03-23T00:54:53.001Z,1005.71
2018-03-23T00:55:53.026Z,1005.70
2018-03-23T00:56:53.051Z,1005.70
2018-03-23T00:57:53.071Z,1005.66
2018-03-23T00:58:53.092Z,1005.62
2018-03-23T00:59:53.111Z,1005.63
2018-03-23T01:00:53.134Z,1005.63
2018-03-23T01:01:53.160Z,1005.67
2018-03-23T01:02:53.179Z,1005.69
2018-03-23T01:03:53.214Z,1005.65
2018-03-23T01:04:53.221Z,1005.66
2018-03-23T01:05:53.244Z,1005.65
2018-03-23T01:06:53.270Z,1005.69
2018-03-23T01:07:53.293Z,1005.64
2018-03-23T01:08:53.320Z,1005.68
2018-03-23T01:09:53.332Z,1005.67
2018-03-23T01:10:53.363Z,1005.70
2018-03-23T01:11:53.379Z,1005.66
2018-03-23T01:12:53.403Z,1005.70
2018-03-23T01:13:53.424Z,1005.67
2018-03-23T01:14:53.455Z,1005.66
2018-03-23T01:15:53.479Z,1005.68
2018-03-23T01:16:53.490Z,1005.67
2018-03-23T01:17:53.519Z,1005.65
2018-03-23T01:18:53.534Z,1005.64
2018-03-23T01:19:53.569Z,1005.64
2018-03-23T01:21:53.598Z,1005.67
2018-03-23T01:22:53.626Z,1005.65
2018-03-23T01:23:53.645Z,1005.61
2018-03-23T01:24:53.667Z,1005.66
2018-03-23T01:25:53.698Z,1005.64
2018-03-23T01:26:53.708Z,1005.66
2018-03-23T01:27:53.734Z,1005.64
2018-03-23T01:29:53.788Z,1005.66
2018-03-23T01:30:53.804Z,1005.59
2018-03-23T01:31:53.829Z,1005.63
2018-03-23T01:32:53.850Z,1005.61
2018-03-23T01:33:53.869Z,1005.62
2018-03-23T01:34:53.887Z,1005.64
2018-03-23T01:35:53.903Z,1005.65
2018-03-23T01:36:53.962Z,1005.66
2018-03-23T01:37:53.950Z,1005.67
2018-03-23T01:38:53.972Z,1005.67
2018-03-23T01:39:53.991Z,1005.65
2018-03-23T01:40:54.021Z,1005.63
2018-03-23T01:41:54.043Z,1005.62
2018-03-23T01:42:54.059Z,1005.62
2018-03-23T01:43:54.118Z,1005.65
2018-03-23T01:44:54.137Z,1005.63
2018-03-23T01:45:54.132Z,1005.64
2018-03-23T01:46:54.149Z,1005.64
2018-03-23T01:47:54.176Z,1005.66
2018-03-23T01:48:54.190Z,1005.66
2018-03-23T01:49:54.230Z,1005.64
2018-03-23T01:50:54.246Z,1005.67
2018-03-23T01:51:54.266Z,1005.68
2018-03-23T01:52:54.279Z,1005.67
2018-03-23T01:53:54.306Z,1005.69
2018-03-23T01:54:54.322Z,1005.71
2018-03-23T01:55:54.347Z,1005.66
2018-03-23T01:56:54.452Z,1005.67
2018-03-23T01:57:54.389Z,1005.65
2018-03-23T01:58:54.416Z,1005.59
2018-03-23T01:59:54.431Z,1005.56
2018-03-23T02:00:54.456Z,1005.57
2018-03-23T02:01:54.477Z,1005.60
2018-03-23T02:02:54.498Z,1005.60
2018-03-23T02:03:54.528Z,1005.53
2018-03-23T02:04:54.544Z,1005.55
2018-03-23T02:05:54.580Z,1005.57
2018-03-23T02:06:54.594Z,1005.55
2018-03-23T02:07:55.296Z,1005.53
2018-03-23T02:08:54.643Z,1005.49
2018-03-23T02:09:54.661Z,1005.51
2018-03-23T02:10:54.676Z,1005.48
2018-03-23T02:11:54.698Z,1005.49
2018-03-23T02:12:54.724Z,1005.50
2018-03-23T02:13:54.742Z,1005.52
2018-03-23T02:14:54.776Z,1005.50
2018-03-23T02:15:54.795Z,1005.48
2018-03-23T02:16:54.808Z,1005.48
2018-03-23T02:17:54.829Z,1005.47
2018-03-23T02:18:54.847Z,1005.48
2018-03-23T02:19:54.884Z,1005.47
2018-03-23T02:20:54.894Z,1005.45
2018-03-23T02:21:54.917Z,1005.41
2018-03-23T02:22:54.946Z,1005.42
2018-03-23T02:23:54.960Z,1005.45
2018-03-23T02:24:54.982Z,1005.41
2018-03-23T02:25:55.002Z,1005.41
2018-03-23T02:26:55.045Z,1005.38
2018-03-23T02:27:55.054Z,1005.36
2018-03-23T02:28:55.069Z,1005.34
2018-03-23T02:29:55.139Z,1005.31
2018-03-23T02:30:55.116Z,1005.33
2018-03-23T02:31:55.133Z,1005.29
2018-03-23T02:32:55.163Z,1005.32
2018-03-23T02:33:55.181Z,1005.29
2018-03-23T02:34:55.203Z,1005.29
2018-03-23T02:35:55.222Z,1005.32
2018-03-23T02:36:55.250Z,1005.34
2018-03-23T02:37:55.268Z,1005.30
2018-03-23T02:38:55.287Z,1005.30
2018-03-23T02:39:55.308Z,1005.28
2018-03-23T02:40:55.338Z,1005.30
2018-03-23T02:41:55.352Z,1005.28
2018-03-23T02:42:55.383Z,1005.27
2018-03-23T02:43:55.401Z,1005.25
2018-03-23T02:44:55.423Z,1005.28
2018-03-23T02:45:55.449Z,1005.21
2018-03-23T02:46:55.466Z,1005.24
2018-03-23T02:47:55.493Z,1005.23
2018-03-23T02:48:55.510Z,1005.24
2018-03-23T02:49:55.529Z,1005.23
2018-03-23T02:50:55.560Z,1005.28
2018-03-23T02:51:55.574Z,1005.23
2018-03-23T02:52:55.603Z,1005.22
2018-03-23T02:53:55.620Z,1005.24
2018-03-23T02:54:55.676Z,1005.21
2018-03-23T02:55:55.661Z,1005.21
2018-03-23T02:56:55.687Z,1005.23
2018-03-23T02:57:55.716Z,1005.20
2018-03-23T02:58:55.728Z,1005.29
2018-03-23T02:59:55.758Z,1005.24
2018-03-23T03:00:55.778Z,1005.27
2018-03-23T03:01:55.794Z,1005.25
2018-03-23T03:02:55.820Z,1005.24
2018-03-23T03:03:55.837Z,1005.22
2018-03-23T03:04:55.862Z,1005.16
2018-03-23T03:05:55.880Z,1005.16
2018-03-23T03:06:56.810Z,1005.12
2018-03-23T03:07:55.935Z,1005.13
2018-03-23T03:08:55.954Z,1005.11
2018-03-23T03:09:55.969Z,1005.13
2018-03-23T03:10:55.986Z,1005.12
2018-03-23T03:11:56.015Z,1005.16
2018-03-23T03:12:56.031Z,1005.15
2018-03-23T03:13:56.061Z,1005.18
2018-03-23T03:14:56.091Z,1005.18
2018-03-23T03:15:56.102Z,1005.19
2018-03-23T03:16:56.122Z,1005.19
2018-03-23T03:17:56.151Z,1005.19
2018-03-23T03:18:56.164Z,1005.20
2018-03-23T03:19:56.296Z,1005.21
2018-03-23T03:20:56.211Z,1005.24
2018-03-23T03:21:56.240Z,1005.28
2018-03-23T03:22:56.250Z,1005.33
2018-03-23T03:23:56.278Z,1005.35
2018-03-23T03:24:56.296Z,1005.36
2018-03-23T03:25:56.322Z,1005.35
2018-03-23T03:26:56.341Z,1005.36
2018-03-23T03:27:56.366Z,1005.40
2018-03-23T03:28:56.382Z,1005.38
2018-03-23T03:29:56.407Z,1005.42
2018-03-23T03:30:56.429Z,1005.39
2018-03-23T03:31:56.448Z,1005.41
2018-03-23T03:32:56.479Z,1005.44
2018-03-23T03:33:56.493Z,1005.39
2018-03-23T03:34:56.521Z,1005.40
2018-03-23T03:35:56.532Z,1005.42
2018-03-23T03:36:56.556Z,1005.50
2018-03-23T03:37:56.589Z,1005.50
2018-03-23T03:38:56.609Z,1005.47
2018-03-23T03:39:56.623Z,1005.48
2018-03-23T03:40:56.647Z,1005.50
2018-03-23T03:41:56.668Z,1005.47
2018-03-23T03:42:56.689Z,1005.42
2018-03-23T03:43:56.713Z,1005.43
2018-03-23T03:44:56.737Z,1005.41
2018-03-23T03:45:56.764Z,1005.41
2018-03-23T03:46:56.780Z,1005.40
2018-03-23T03:47:56.798Z,1005.42
2018-03-23T03:48:56.819Z,1005.40
2018-03-23T03:49:56.847Z,1005.42
2018-03-23T03:50:56.870Z,1005.44
2018-03-23T03:51:56.884Z,1005.43
2018-03-23T03:52:56.907Z,1005.45
2018-03-23T03:53:56.928Z,1005.44
2018-03-23T03:54:56.950Z,1005.43
2018-03-23T03:55:56.981Z,1005.41
2018-03-23T03:56:56.994Z,1005.42
2018-03-23T03:57:57.026Z,1005.40
2018-03-23T03:58:57.036Z,1005.41
2018-03-23T03:59:57.056Z,1005.42
2018-03-23T04:00:57.087Z,1005.41
2018-03-23T04:01:57.104Z,1005.42
2018-03-23T04:02:57.127Z,1005.43
2018-03-23T04:03:57.158Z,1005.43
2018-03-23T04:04:57.180Z,1005.46
2018-03-23T04:05:57.188Z,1005.46
2018-03-23T04:06:57.213Z,1005.46
2018-03-23T04:07:57.241Z,1005.43
2018-03-23T04:08:57.251Z,1005.41
2018-03-23T04:09:57.285Z,1005.46
2018-03-23T04:10:57.301Z,1005.44
2018-03-23T04:11:57.334Z,1005.44
2018-03-23T04:12:57.339Z,1005.40
2018-03-23T04:13:57.364Z,1005.38
2018-03-23T04:14:57.407Z,1005.41
2018-03-23T04:15:57.412Z,1005.44
2018-03-23T04:16:57.439Z,1005.47
2018-03-23T04:17:57.454Z,1005.40
2018-03-23T04:18:57.472Z,1005.35
2018-03-23T04:19:57.496Z,1005.41
2018-03-23T04:20:57.512Z,1005.38
2018-03-23T04:21:57.544Z,1005.35
2018-03-23T04:22:57.560Z,1005.35
2018-03-23T04:23:57.589Z,1005.32
2018-03-23T04:24:57.605Z,1005.30
2018-03-23T04:25:57.629Z,1005.34
2018-03-23T04:26:57.659Z,1005.37
2018-03-23T04:27:57.668Z,1005.39
2018-03-23T04:28:57.702Z,1005.34
2018-03-23T04:29:57.712Z,1005.35
2018-03-23T04:30:57.738Z,1005.33
2018-03-23T04:31:57.754Z,1005.28
2018-03-23T04:32:57.774Z,1005.27
2018-03-23T04:33:57.800Z,1005.27
2018-03-23T04:34:57.819Z,1005.25
2018-03-23T04:35:57.842Z,1005.26
2018-03-23T04:36:57.860Z,1005.27
2018-03-23T04:37:57.888Z,1005.25
2018-03-23T04:38:57.904Z,1005.30
2018-03-23T04:39:57.926Z,1005.29
2018-03-23T04:40:57.950Z,1005.23
2018-03-23T04:41:57.974Z,1005.24
2018-03-23T04:42:58.067Z,1005.26
2018-03-23T04:43:58.016Z,1005.29
2018-03-23T04:44:58.078Z,1005.27
2018-03-23T04:45:58.059Z,1005.26
2018-03-23T04:46:58.086Z,1005.23
2018-03-23T04:47:58.101Z,1005.28
2018-03-23T04:48:58.127Z,1005.25
2018-03-23T04:49:58.161Z,1005.22
2018-03-23T04:50:58.171Z,1005.18
2018-03-23T04:51:58.279Z,1005.19
2018-03-23T04:52:58.220Z,1005.23
2018-03-23T04:53:58.239Z,1005.28
2018-03-23T04:54:58.257Z,1005.24
2018-03-23T04:55:58.280Z,1005.25
2018-03-23T04:56:58.299Z,1005.25
2018-03-23T04:57:58.326Z,1005.17
2018-03-23T04:58:58.353Z,1005.19
2018-03-23T04:59:58.366Z,1005.19
2018-03-23T05:00:58.390Z,1005.17
2018-03-23T05:01:58.406Z,1005.15
2018-03-23T05:02:58.430Z,1005.13
2018-03-23T05:03:58.453Z,1005.05
2018-03-23T05:04:58.473Z,1005.07
2018-03-23T05:05:58.499Z,1005.05
2018-03-23T05:06:58.523Z,1005.07
2018-03-23T05:07:58.561Z,1005.05
2018-03-23T05:08:58.620Z,1005.03
2018-03-23T05:09:58.580Z,1005.05
2018-03-23T05:10:58.609Z,1005.06
2018-03-23T05:11:58.624Z,1005.06
2018-03-23T05:12:58.658Z,1005.05
2018-03-23T05:13:58.669Z,1005.02
2018-03-23T05:14:58.699Z,1005.06
2018-03-23T05:15:58.725Z,1005.07
2018-03-23T05:16:58.730Z,1005.07
2018-03-23T05:17:58.778Z,1005.06
2018-03-23T05:18:58.774Z,1005.10
2018-03-23T05:19:58.874Z,1005.09
2018-03-23T05:20:58.828Z,1005.12
2018-03-23T05:21:58.851Z,1005.12
2018-03-23T05:22:58.859Z,1005.09
2018-03-23T05:23:58.880Z,1005.09
2018-03-23T05:24:58.913Z,1005.11
2018-03-23T05:25:58.927Z,1005.15
2018-03-23T05:26:58.951Z,1005.11
2018-03-23T05:27:58.975Z,1005.13
2018-03-23T05:28:59.007Z,1005.08
2018-03-23T05:29:59.033Z,1005.08
2018-03-23T05:30:59.037Z,1005.14
2018-03-23T05:31:59.065Z,1005.09
2018-03-23T05:32:59.085Z,1005.09
2018-03-23T05:33:59.100Z,1005.12
2018-03-23T05:34:59.125Z,1005.06
2018-03-23T05:35:59.150Z,1005.08
2018-03-23T05:36:59.165Z,1005.11
2018-03-23T05:37:59.190Z,1005.06
2018-03-23T05:38:59.216Z,1005.06
2018-03-23T05:39:59.229Z,1005.13
2018-03-23T05:40:59.253Z,1005.13
2018-03-23T05:41:59.280Z,1005.15
2018-03-23T05:42:59.310Z,1005.15
2018-03-23T05:43:59.321Z,1005.13
2018-03-23T05:44:59.344Z,1005.17
2018-03-23T05:45:59.378Z,1005.16
2018-03-23T05:46:59.386Z,1005.14
2018-03-23T05:47:59.417Z,1005.14
2018-03-23T05:48:59.432Z,1005.12
2018-03-23T05:49:59.460Z,1005.09
2018-03-23T05:50:59.474Z,1005.10
2018-03-23T05:51:59.515Z,1005.10
2018-03-23T05:52:59.528Z,1005.10
2018-03-23T05:53:59.535Z,1005.10
2018-03-23T05:54:59.560Z,1005.09
2018-03-23T05:55:59.578Z,1005.09
2018-03-23T05:56:59.617Z,1005.11
2018-03-23T05:57:59.636Z,1005.08
2018-03-23T05:58:59.674Z,1005.09
2018-03-23T05:59:59.669Z,1005.09
2018-03-23T06:00:59.687Z,1005.07
2018-03-23T06:01:59.720Z,1005.10
2018-03-23T06:02:59.730Z,1005.08
2018-03-23T06:03:59.757Z,1005.11
2018-03-23T06:04:59.775Z,1005.11
2018-03-23T06:05:59.809Z,1005.11
2018-03-23T06:06:59.833Z,1005.15
2018-03-23T06:07:59.841Z,1005.12
2018-03-23T06:08:59.861Z,1005.13
2018-03-23T06:09:59.885Z,1005.14
2018-03-23T06:10:59.920Z,1005.15
2018-03-23T06:11:59.926Z,1005.16
2018-03-23T06:12:59.961Z,1005.16
2018-03-23T06:13:59.973Z,1005.19
2018-03-23T06:14:59.996Z,1005.21
2018-03-23T06:16:00.040Z,1005.19
2018-03-23T06:17:00.038Z,1005.20
2018-03-23T06:18:00.068Z,1005.23
2018-03-23T06:19:00.808Z,1005.17
2018-03-23T06:20:00.107Z,1005.18
2018-03-23T06:21:00.131Z,1005.22
2018-03-23T06:22:00.152Z,1005.20
2018-03-23T06:23:00.166Z,1005.19
2018-03-23T06:24:00.206Z,1005.17
2018-03-23T06:25:00.219Z,1005.17
2018-03-23T06:26:00.241Z,1005.19
2018-03-23T06:27:00.261Z,1005.20
2018-03-23T06:28:00.313Z,1005.22
2018-03-23T06:29:00.297Z,1005.20
2018-03-23T06:30:00.319Z,1005.24
2018-03-23T06:31:00.340Z,1005.23
2018-03-23T06:32:01.308Z,1005.27
2018-03-23T06:33:00.392Z,1005.26
2018-03-23T06:34:00.472Z,1005.24
2018-03-23T06:35:00.438Z,1005.25
2018-03-23T06:36:00.489Z,1005.25
2018-03-23T06:37:00.497Z,1005.22
2018-03-23T06:38:00.503Z,1005.23
2018-03-23T06:39:00.536Z,1005.22
2018-03-23T06:40:00.538Z,1005.24
2018-03-23T06:41:00.579Z,1005.21
2018-03-23T06:42:00.610Z,1005.23
2018-03-23T06:43:00.619Z,1005.25
2018-03-23T06:44:00.645Z,1005.25
2018-03-23T06:45:00.651Z,1005.24
2018-03-23T06:46:00.674Z,1005.23
2018-03-23T06:47:00.710Z,1005.22
2018-03-23T06:48:00.720Z,1005.25
2018-03-23T06:49:00.743Z,1005.20
2018-03-23T06:50:00.772Z,1005.22
2018-03-23T06:51:00.777Z,1005.26
2018-03-23T06:52:00.815Z,1005.22
2018-03-23T06:53:00.842Z,1005.21
2018-03-23T06:54:00.849Z,1005.24
2018-03-23T06:55:00.871Z,1005.29
2018-03-23T06:56:00.913Z,1005.31
2018-03-23T06:57:00.922Z,1005.27
2018-03-23T06:58:00.942Z,1005.30
2018-03-23T06:59:00.965Z,1005.29
2018-03-23T07:00:00.986Z,1005.32
2018-03-23T07:01:01.017Z,1005.30
2018-03-23T07:02:01.027Z,1005.31
2018-03-23T07:03:01.046Z,1005.33
2018-03-23T07:04:01.067Z,1005.30
2018-03-23T07:05:01.094Z,1005.33
2018-03-23T07:06:01.111Z,1005.30
2018-03-23T07:07:01.141Z,1005.39
2018-03-23T07:08:01.164Z,1005.35
2018-03-23T07:09:01.180Z,1005.37
2018-03-23T07:10:01.198Z,1005.37
2018-03-23T07:11:01.277Z,1005.37
2018-03-23T07:12:01.248Z,1005.36
2018-03-23T07:13:01.286Z,1005.38
2018-03-23T07:14:01.292Z,1005.39
2018-03-23T07:15:01.306Z,1005.37
2018-03-23T07:16:01.331Z,1005.36
2018-03-23T07:17:01.386Z,1005.35
2018-03-23T07:18:01.397Z,1005.37
2018-03-23T07:19:01.398Z,1005.33
2018-03-23T07:20:01.429Z,1005.34
2018-03-23T07:21:01.444Z,1005.36
2018-03-23T07:22:01.514Z,1005.36
2018-03-23T07:23:01.487Z,1005.38
2018-03-23T07:24:01.504Z,1005.40
2018-03-23T07:25:01.534Z,1005.39
2018-03-23T07:26:01.567Z,1005.39
2018-03-23T07:27:01.571Z,1005.41
2018-03-23T07:28:01.595Z,1005.40
2018-03-23T07:29:01.627Z,1005.40
2018-03-23T07:30:01.645Z,1005.37
2018-03-23T07:31:01.688Z,1005.42
2018-03-23T07:32:01.679Z,1005.41
2018-03-23T07:33:01.708Z,1005.42
2018-03-23T07:34:01.739Z,1005.44
2018-03-23T07:35:01.766Z,1005.40
2018-03-23T07:36:01.771Z,1005.42
2018-03-23T07:37:01.798Z,1005.42
2018-03-23T07:38:01.820Z,1005.44
2018-03-23T07:39:01.835Z,1005.42
2018-03-23T07:40:01.876Z,1005.47
2018-03-23T07:41:01.895Z,1005.47
2018-03-23T07:42:01.915Z,1005.45
2018-03-23T07:43:01.924Z,1005.49
2018-03-23T07:44:01.961Z,1005.45
2018-03-23T07:45:01.969Z,1005.45
2018-03-23T07:46:02.014Z,1005.46
2018-03-23T07:47:02.025Z,1005.45
2018-03-23T07:48:02.040Z,1005.50
2018-03-23T07:49:02.070Z,1005.47
2018-03-23T07:50:02.082Z,1005.45
2018-03-23T07:51:02.110Z,1005.43
2018-03-23T07:52:02.128Z,1005.42
2018-03-23T07:53:02.156Z,1005.40
2018-03-23T07:54:02.163Z,1005.42
2018-03-23T07:55:02.312Z,1005.43
2018-03-23T07:56:02.214Z,1005.50
2018-03-23T07:57:02.237Z,1005.45
2018-03-23T07:58:02.260Z,1005.45
2018-03-23T07:59:02.284Z,1005.41
2018-03-23T08:00:02.317Z,1005.43
2018-03-23T08:01:02.328Z,1005.41
2018-03-23T08:02:02.350Z,1005.44
2018-03-23T08:03:02.362Z,1005.43
2018-03-23T08:04:02.389Z,1005.44
2018-03-23T08:05:02.423Z,1005.44
2018-03-23T08:06:02.442Z,1005.42
2018-03-23T08:07:02.511Z,1005.45
2018-03-23T08:08:02.491Z,1005.40
2018-03-23T08:09:02.503Z,1005.42
2018-03-23T08:10:02.539Z,1005.42
2018-03-23T08:11:02.570Z,1005.41
2018-03-23T08:12:02.571Z,1005.41
2018-03-23T08:13:02.588Z,1005.39
2018-03-23T08:14:02.618Z,1005.40
2018-03-23T08:15:02.636Z,1005.37
2018-03-23T08:16:02.656Z,1005.38
2018-03-23T08:17:02.686Z,1005.37
2018-03-23T08:18:02.706Z,1005.40
2018-03-23T08:19:03.312Z,1005.38
2018-03-23T08:20:02.748Z,1005.39
2018-03-23T08:21:02.808Z,1005.38
2018-03-23T08:22:02.795Z,1005.42
2018-03-23T08:23:02.810Z,1005.43
2018-03-23T08:24:02.839Z,1005.42
2018-03-23T08:25:02.858Z,1005.39
2018-03-23T08:26:02.880Z,1005.40
2018-03-23T08:27:02.901Z,1005.41
2018-03-23T08:28:02.922Z,1005.39
2018-03-23T08:29:02.951Z,1005.36
2018-03-23T08:30:03.076Z,1005.41
2018-03-23T08:31:03.001Z,1005.39
2018-03-23T08:32:03.019Z,1005.36
2018-03-23T08:33:03.033Z,1005.43
2018-03-23T08:34:03.060Z,1005.36
2018-03-23T08:35:03.082Z,1005.38
2018-03-23T08:36:03.110Z,1005.37
2018-03-23T08:37:03.125Z,1005.37
2018-03-23T08:38:03.160Z,1005.37
2018-03-23T08:39:03.172Z,1005.34
2018-03-23T08:40:03.189Z,1005.35
2018-03-23T08:41:03.211Z,1005.35
2018-03-23T08:42:03.236Z,1005.32
2018-03-23T08:43:03.269Z,1005.33
2018-03-23T08:44:03.282Z,1005.32
2018-03-23T08:45:03.313Z,1005.31
2018-03-23T08:46:03.334Z,1005.32
2018-03-23T08:47:03.355Z,1005.38
2018-03-23T08:48:03.416Z,1005.36
2018-03-23T08:49:03.393Z,1005.37
2018-03-23T08:50:03.419Z,1005.37
2018-03-23T08:51:03.464Z,1005.39
2018-03-23T08:52:03.462Z,1005.39
2018-03-23T08:53:03.483Z,1005.43
2018-03-23T08:54:03.505Z,1005.40
2018-03-23T08:55:03.535Z,1005.36
2018-03-23T08:56:03.554Z,1005.37
2018-03-23T08:57:03.578Z,1005.39
2018-03-23T08:58:03.589Z,1005.39
2018-03-23T08:59:03.619Z,1005.38
2018-03-23T09:00:03.637Z,1005.39
2018-03-23T09:01:03.673Z,1005.40
2018-03-23T09:02:03.686Z,1005.35
2018-03-23T09:03:03.703Z,1005.38
2018-03-23T09:04:03.729Z,1005.37
2018-03-23T09:05:03.751Z,1005.37
2018-03-23T09:06:03.771Z,1005.40
2018-03-23T09:07:03.792Z,1005.43
2018-03-23T09:08:03.815Z,1005.41
2018-03-23T09:09:03.845Z,1005.41
2018-03-23T09:10:03.862Z,1005.40
2018-03-23T09:11:03.889Z,1005.41
2018-03-23T09:12:03.906Z,1005.42
2018-03-23T09:13:03.929Z,1005.45
2018-03-23T09:14:03.962Z,1005.42
2018-03-23T09:15:03.987Z,1005.45
2018-03-23T09:16:04.007Z,1005.47
2018-03-23T09:17:04.013Z,1005.48
2018-03-23T09:18:04.048Z,1005.49
2018-03-23T09:19:04.066Z,1005.44
2018-03-23T09:20:04.082Z,1005.47
2018-03-23T09:21:04.113Z,1005.47
2018-03-23T09:22:04.132Z,1005.49
2018-03-23T09:23:04.161Z,1005.44
2018-03-23T09:24:04.173Z,1005.41
2018-03-23T09:25:04.196Z,1005.42
2018-03-23T09:26:04.236Z,1005.40
2018-03-23T09:27:04.240Z,1005.42
2018-03-23T09:28:04.282Z,1005.42
2018-03-23T09:29:04.816Z,1005.38
2018-03-23T09:30:04.315Z,1005.39
2018-03-23T09:31:04.341Z,1005.41
2018-03-23T09:32:04.353Z,1005.44
2018-03-23T09:33:04.380Z,1005.40
2018-03-23T09:34:04.398Z,1005.40
2018-03-23T09:35:04.422Z,1005.40
2018-03-23T09:36:04.450Z,1005.43
2018-03-23T09:37:04.460Z,1005.43
2018-03-23T09:38:04.486Z,1005.36
2018-03-23T09:39:04.529Z,1005.41
2018-03-23T09:40:04.531Z,1005.36
2018-03-23T09:41:04.553Z,1005.35
2018-03-23T09:42:04.588Z,1005.38
2018-03-23T09:43:04.601Z,1005.34
2018-03-23T09:44:04.659Z,1005.36
2018-03-23T09:45:04.642Z,1005.36
2018-03-23T09:46:04.667Z,1005.37
2018-03-23T09:47:04.697Z,1005.38
2018-03-23T09:48:04.724Z,1005.35
2018-03-23T09:49:04.742Z,1005.32
2018-03-23T09:50:04.754Z,1005.30
2018-03-23T09:51:04.777Z,1005.30
2018-03-23T09:52:04.802Z,1005.32
2018-03-23T09:53:04.837Z,1005.30
2018-03-23T09:54:04.842Z,1005.28
2018-03-23T09:55:04.912Z,1005.25
2018-03-23T09:56:04.890Z,1005.27
2018-03-23T09:57:04.909Z,1005.25
2018-03-23T09:58:04.938Z,1005.23
2018-03-23T09:59:04.956Z,1005.29
2018-03-23T10:00:04.976Z,1005.28
2018-03-23T10:01:04.997Z,1005.27
2018-03-23T10:02:05.022Z,1005.26
2018-03-23T10:03:05.038Z,1005.28
2018-03-23T10:04:05.214Z,1005.25
2018-03-23T10:05:05.090Z,1005.28
2018-03-23T10:06:05.121Z,1005.26
2018-03-23T10:07:05.129Z,1005.26
2018-03-23T10:08:05.151Z,1005.30
2018-03-23T10:09:05.175Z,1005.32
2018-03-23T10:10:05.202Z,1005.29
2018-03-23T10:11:05.228Z,1005.27
2018-03-23T10:12:05.244Z,1005.29
2018-03-23T10:13:05.264Z,1005.30
2018-03-23T10:14:05.297Z,1005.32
2018-03-23T10:15:05.324Z,1005.31
2018-03-23T10:16:05.340Z,1005.30
2018-03-23T10:17:05.364Z,1005.27
2018-03-23T10:18:05.376Z,1005.32
2018-03-23T10:19:05.399Z,1005.34
2018-03-23T10:20:05.422Z,1005.33
2018-03-23T10:21:05.442Z,1005.31
2018-03-23T10:22:05.463Z,1005.31
2018-03-23T10:23:05.492Z,1005.30
2018-03-23T10:24:05.511Z,1005.29
2018-03-23T10:25:05.534Z,1005.33
2018-03-23T10:26:05.554Z,1005.26
2018-03-23T10:27:05.584Z,1005.26
2018-03-23T10:28:05.597Z,1005.27
2018-03-23T10:29:05.638Z,1005.26
2018-03-23T10:30:05.649Z,1005.25
2018-03-23T10:31:05.665Z,1005.26
2018-03-23T10:32:05.692Z,1005.24
2018-03-23T10:33:05.712Z,1005.25
2018-03-23T10:34:05.731Z,1005.22
2018-03-23T10:35:05.750Z,1005.20
2018-03-23T10:36:05.789Z,1005.20
2018-03-23T10:37:05.797Z,1005.22
2018-03-23T10:38:05.822Z,1005.19
2018-03-23T10:39:05.841Z,1005.17
2018-03-23T10:40:05.864Z,1005.20
2018-03-23T10:41:05.894Z,1005.22
2018-03-23T10:42:05.905Z,1005.21
2018-03-23T10:43:05.936Z,1005.18
2018-03-23T10:44:05.949Z,1005.20
2018-03-23T10:45:05.974Z,1005.22
2018-03-23T10:46:06.006Z,1005.20
2018-03-23T10:47:06.034Z,1005.19
2018-03-23T10:48:06.042Z,1005.19
2018-03-23T10:49:06.062Z,1005.21
2018-03-23T10:50:06.086Z,1005.23
2018-03-23T10:51:06.102Z,1005.27
2018-03-23T10:52:06.132Z,1005.21
2018-03-23T10:53:06.158Z,1005.24
2018-03-23T10:54:06.180Z,1005.21
2018-03-23T10:55:06.198Z,1005.19
2018-03-23T10:56:06.221Z,1005.14
2018-03-23T10:57:06.243Z,1005.14
2018-03-23T10:58:06.266Z,1005.15
2018-03-23T10:59:06.330Z,1005.12
2018-03-23T11:00:06.310Z,1005.12
2018-03-23T11:01:06.336Z,1005.11
2018-03-23T11:02:06.353Z,1005.11
2018-03-23T11:03:06.375Z,1005.09
2018-03-23T11:04:06.394Z,1005.12
2018-03-23T11:05:06.431Z,1005.13
2018-03-23T11:06:06.440Z,1005.16
2018-03-23T11:07:06.469Z,1005.18
2018-03-23T11:08:06.488Z,1005.21
2018-03-23T11:09:06.506Z,1005.19
2018-03-23T11:10:06.538Z,1005.18
2018-03-23T11:11:06.556Z,1005.16
2018-03-23T11:12:06.573Z,1005.17
2018-03-23T11:13:06.598Z,1005.15
2018-03-23T11:14:06.619Z,1005.14
2018-03-23T11:15:06.645Z,1005.17
2018-03-23T11:16:06.668Z,1005.17
2018-03-23T11:17:06.688Z,1005.17
2018-03-23T11:18:06.715Z,1005.18
2018-03-23T11:19:06.733Z,1005.16
2018-03-23T11:20:06.771Z,1005.16
2018-03-23T11:21:06.774Z,1005.13
2018-03-23T11:22:06.798Z,1005.12
2018-03-23T11:23:06.826Z,1005.18
2018-03-23T11:24:06.844Z,1005.13
2018-03-23T11:25:06.873Z,1005.13
2018-03-23T11:26:06.889Z,1005.10
2018-03-23T11:27:06.906Z,1005.12
2018-03-23T11:28:06.949Z,1005.12
2018-03-23T11:29:06.962Z,1005.10
2018-03-23T11:30:06.988Z,1005.12
2018-03-23T11:31:06.998Z,1005.08
2018-03-23T11:32:07.034Z,1005.09
2018-03-23T11:33:07.043Z,1005.13
2018-03-23T11:34:07.066Z,1005.11
2018-03-23T11:35:07.086Z,1005.10
2018-03-23T11:36:07.115Z,1005.10
2018-03-23T11:37:07.174Z,1005.09
2018-03-23T11:38:07.163Z,1005.08
2018-03-23T11:39:07.183Z,1005.07
2018-03-23T11:40:07.246Z,1005.04
2018-03-23T11:41:07.218Z,1005.05
2018-03-23T11:42:07.277Z,1005.03
2018-03-23T11:43:07.268Z,1005.03
2018-03-23T11:44:07.289Z,1005.04
2018-03-23T11:45:07.318Z,1005.01
2018-03-23T11:46:07.340Z,1005.00
2018-03-23T11:47:07.361Z,1005.00
2018-03-23T11:48:07.393Z,1004.99
2018-03-23T11:49:07.415Z,1004.94
2018-03-23T11:50:07.440Z,1005.00
2018-03-23T11:51:07.443Z,1004.97
2018-03-23T11:52:07.470Z,1004.97
2018-03-23T11:53:07.485Z,1004.97
2018-03-23T11:54:07.509Z,1004.95
2018-03-23T11:55:07.536Z,1004.93
2018-03-23T11:56:07.557Z,1004.96
2018-03-23T11:57:07.578Z,1004.91
2018-03-23T11:58:07.598Z,1004.92
2018-03-23T11:59:07.690Z,1004.92
2018-03-23T12:00:07.696Z,1004.95
2018-03-23T12:01:07.669Z,1004.92
2018-03-23T12:02:07.696Z,1004.89
2018-03-23T12:03:07.717Z,1004.87
2018-03-23T12:04:07.741Z,1004.91
2018-03-23T12:05:07.786Z,1004.88
2018-03-23T12:06:07.784Z,1004.82
2018-03-23T12:07:07.803Z,1004.82
2018-03-23T12:08:07.822Z,1004.79